Terminal Aerodrome Forecast
Issued by NWS Topeka, KS

Home | Current Version | Previous Version | Text Only | Print | Product List | Glossary On
Versions: 1 2 3 4 5 6 7 8 9 10 11 12 13 14 15 16 17 18 19 20 21 22 23 24
000
FTUS43 KTOP 210520
TAFTOP
TAF
KTOP 210520Z 2106/2206 36012G18KT P6SM SCT080
     FM210800 04010KT P6SM SCT100
     FM220300 06008KT P6SM -FZRAPL BKN025=

USA.gov is the U.S. government's official web portal to all federal, state and local government web resources and services.